sensor_id;sensor_type;location;lat;lon;timestamp;P1;durP1;ratioP1;P2;durP2;ratioP2
76788;SDS011;65740;52.464;13.446;2023-04-01T00:00:28;4.00;;;3.60;;
76788;SDS011;65740;52.464;13.446;2023-04-01T00:02:53;3.80;;;3.27;;
76788;SDS011;65740;52.464;13.446;2023-04-01T00:05:20;3.57;;;3.10;;
76788;SDS011;65740;52.464;13.446;2023-04-01T00:07:46;3.70;;;3.30;;
76788;SDS011;65740;52.464;13.446;2023-04-01T00:10:12;3.60;;;3.27;;
76788;SDS011;65740;52.464;13.446;2023-04-01T00:12:38;4.07;;;3.67;;
76788;SDS011;65740;52.464;13.446;2023-04-01T00:15:06;3.63;;;3.33;;
76788;SDS011;65740;52.464;13.446;2023-04-01T00:17:33;3.80;;;3.37;;
76788;SDS011;65740;52.464;13.446;2023-04-01T00:19:59;3.87;;;3.57;;
76788;SDS011;65740;52.464;13.446;2023-04-01T00:22:25;4.53;;;4.13;;
76788;SDS011;65740;52.464;13.446;2023-04-01T00:24:52;3.67;;;3.37;;
76788;SDS011;65740;52.464;13.446;2023-04-01T00:27:18;3.17;;;2.97;;
76788;SDS011;65740;52.464;13.446;2023-04-01T00:29:45;3.50;;;3.20;;
76788;SDS011;65740;52.464;13.446;2023-04-01T00:32:12;3.50;;;3.20;;
76788;SDS011;65740;52.464;13.446;2023-04-01T00:34:41;4.00;;;3.67;;
76788;SDS011;65740;52.464;13.446;2023-04-01T00:37:06;3.33;;;2.90;;
76788;SDS011;65740;52.464;13.446;2023-04-01T00:39:33;3.17;;;2.97;;
76788;SDS011;65740;52.464;13.446;2023-04-01T00:41:59;3.40;;;3.20;;
76788;SDS011;65740;52.464;13.446;2023-04-01T00:44:30;3.60;;;3.40;;
76788;SDS011;65740;52.464;13.446;2023-04-01T00:46:57;3.20;;;3.00;;
76788;SDS011;65740;52.464;13.446;2023-04-01T00:49:24;3.17;;;2.97;;
76788;SDS011;65740;52.464;13.446;2023-04-01T00:52:10;4.00;;;3.40;;
76788;SDS011;65740;52.464;13.446;2023-04-01T00:54:41;3.70;;;3.40;;
76788;SDS011;65740;52.464;13.446;2023-04-01T00:57:30;3.50;;;3.20;;
76788;SDS011;65740;52.464;13.446;2023-04-01T01:00:01;3.60;;;3.30;;
76788;SDS011;65740;52.464;13.446;2023-04-01T01:02:28;2.90;;;2.70;;
76788;SDS011;65740;52.464;13.446;2023-04-01T01:04:56;3.43;;;2.87;;
76788;SDS011;65740;52.464;13.446;2023-04-01T01:10:19;3.20;;;3.00;;
76788;SDS011;65740;52.464;13.446;2023-04-01T01:15:29;3.20;;;3.00;;
76788;SDS011;65740;52.464;13.446;2023-04-01T01:21:04;3.30;;;3.00;;
76788;SDS011;65740;52.464;13.446;2023-04-01T01:23:57;3.17;;;2.97;;
76788;SDS011;65740;52.464;13.446;2023-04-01T01:26:44;3.13;;;2.83;;
76788;SDS011;65740;52.464;13.446;2023-04-01T01:29:23;3.40;;;3.10;;
76788;SDS011;65740;52.464;13.446;2023-04-01T01:35:13;3.37;;;2.90;;
76788;SDS011;65740;52.464;13.446;2023-04-01T01:37:43;3.40;;;3.10;;
76788;SDS011;65740;52.464;13.446;2023-04-01T01:40:11;3.13;;;2.93;;
76788;SDS011;65740;52.464;13.446;2023-04-01T01:42:40;3.47;;;3.17;;
76788;SDS011;65740;52.464;13.446;2023-04-01T01:45:13;4.30;;;3.77;;
76788;SDS011;65740;52.464;13.446;2023-04-01T01:47:43;3.73;;;3.30;;
76788;SDS011;65740;52.464;13.446;2023-04-01T01:50:10;3.40;;;3.10;;
76788;SDS011;65740;52.464;13.446;2023-04-01T01:52:36;3.40;;;3.20;;
76788;SDS011;65740;52.464;13.446;2023-04-01T01:55:02;3.27;;;3.03;;
76788;SDS011;65740;52.464;13.446;2023-04-01T01:57:30;3.40;;;3.20;;
76788;SDS011;65740;52.464;13.446;2023-04-01T02:00:00;3.40;;;2.60;;
76788;SDS011;65740;52.464;13.446;2023-04-01T02:02:32;3.60;;;3.30;;
76788;SDS011;65740;52.464;13.446;2023-04-01T02:04:58;2.87;;;2.67;;
76788;SDS011;65740;52.464;13.446;2023-04-01T02:07:28;3.40;;;3.20;;
76788;SDS011;65740;52.464;13.446;2023-04-01T02:09:58;2.87;;;2.67;;
76788;SDS011;65740;52.464;13.446;2023-04-01T02:12:24;3.00;;;2.80;;
76788;SDS011;65740;52.464;13.446;2023-04-01T02:15:09;2.90;;;2.70;;
76788;SDS011;65740;52.464;13.446;2023-04-01T02:17:38;2.70;;;2.50;;
76788;SDS011;65740;52.464;13.446;2023-04-01T02:20:09;3.20;;;2.90;;
76788;SDS011;65740;52.464;13.446;2023-04-01T02:22:47;3.10;;;3.00;;
76788;SDS011;65740;52.464;13.446;2023-04-01T02:25:23;2.80;;;2.60;;
76788;SDS011;65740;52.464;13.446;2023-04-01T02:27:54;3.07;;;2.87;;
76788;SDS011;65740;52.464;13.446;2023-04-01T02:30:23;2.60;;;2.50;;
76788;SDS011;65740;52.464;13.446;2023-04-01T02:32:49;2.70;;;2.50;;
76788;SDS011;65740;52.464;13.446;2023-04-01T02:35:16;3.20;;;3.00;;
76788;SDS011;65740;52.464;13.446;2023-04-01T02:37:42;3.37;;;3.17;;
76788;SDS011;65740;52.464;13.446;2023-04-01T02:40:13;3.47;;;3.23;;
76788;SDS011;65740;52.464;13.446;2023-04-01T02:42:40;3.00;;;2.80;;
76788;SDS011;65740;52.464;13.446;2023-04-01T02:45:06;2.40;;;2.30;;
76788;SDS011;65740;52.464;13.446;2023-04-01T02:47:32;3.33;;;3.03;;
76788;SDS011;65740;52.464;13.446;2023-04-01T02:49:58;3.60;;;3.03;;
76788;SDS011;65740;52.464;13.446;2023-04-01T02:52:29;2.93;;;2.73;;
76788;SDS011;65740;52.464;13.446;2023-04-01T02:54:55;2.57;;;2.37;;
76788;SDS011;65740;52.464;13.446;2023-04-01T02:57:22;3.00;;;2.80;;
76788;SDS011;65740;52.464;13.446;2023-04-01T02:59:47;3.20;;;3.00;;
76788;SDS011;65740;52.464;13.446;2023-04-01T03:02:13;3.20;;;3.00;;
76788;SDS011;65740;52.464;13.446;2023-04-01T03:04:39;2.90;;;2.70;;
76788;SDS011;65740;52.464;13.446;2023-04-01T03:07:05;2.87;;;2.67;;
76788;SDS011;65740;52.464;13.446;2023-04-01T03:09:31;3.30;;;3.00;;
76788;SDS011;65740;52.464;13.446;2023-04-01T03:11:56;2.97;;;2.77;;
76788;SDS011;65740;52.464;13.446;2023-04-01T03:14:22;2.67;;;2.57;;
76788;SDS011;65740;52.464;13.446;2023-04-01T03:16:47;2.80;;;2.60;;
76788;SDS011;65740;52.464;13.446;2023-04-01T03:19:13;2.63;;;2.43;;
76788;SDS011;65740;52.464;13.446;2023-04-01T03:21:39;3.00;;;2.80;;
76788;SDS011;65740;52.464;13.446;2023-04-01T03:24:05;3.03;;;2.83;;
76788;SDS011;65740;52.464;13.446;2023-04-01T03:26:31;2.60;;;2.40;;
76788;SDS011;65740;52.464;13.446;2023-04-01T03:28:57;2.90;;;2.73;;
76788;SDS011;65740;52.464;13.446;2023-04-01T03:31:22;3.27;;;3.07;;
76788;SDS011;65740;52.464;13.446;2023-04-01T03:33:48;3.03;;;2.83;;
76788;SDS011;65740;52.464;13.446;2023-04-01T03:36:14;3.00;;;2.80;;
76788;SDS011;65740;52.464;13.446;2023-04-01T03:38:40;2.80;;;2.60;;
76788;SDS011;65740;52.464;13.446;2023-04-01T03:41:07;2.47;;;2.37;;
76788;SDS011;65740;52.464;13.446;2023-04-01T03:43:36;2.90;;;2.70;;
76788;SDS011;65740;52.464;13.446;2023-04-01T03:46:01;2.80;;;2.60;;
76788;SDS011;65740;52.464;13.446;2023-04-01T03:48:27;2.90;;;2.70;;
76788;SDS011;65740;52.464;13.446;2023-04-01T03:50:52;2.43;;;2.23;;
76788;SDS011;65740;52.464;13.446;2023-04-01T03:53:18;2.97;;;2.77;;
76788;SDS011;65740;52.464;13.446;2023-04-01T03:55:44;2.83;;;2.63;;
76788;SDS011;65740;52.464;13.446;2023-04-01T03:58:10;3.00;;;2.80;;
76788;SDS011;65740;52.464;13.446;2023-04-01T04:00:36;2.80;;;2.60;;
76788;SDS011;65740;52.464;13.446;2023-04-01T04:03:01;2.60;;;2.40;;
76788;SDS011;65740;52.464;13.446;2023-04-01T04:05:27;2.60;;;2.50;;
76788;SDS011;65740;52.464;13.446;2023-04-01T04:07:53;2.53;;;2.33;;
76788;SDS011;65740;52.464;13.446;2023-04-01T04:10:19;2.67;;;2.57;;
76788;SDS011;65740;52.464;13.446;2023-04-01T04:12:44;2.77;;;2.57;;
76788;SDS011;65740;52.464;13.446;2023-04-01T04:15:10;2.57;;;2.40;;
76788;SDS011;65740;52.464;13.446;2023-04-01T04:17:36;2.67;;;2.47;;
76788;SDS011;65740;52.464;13.446;2023-04-01T04:20:01;2.50;;;2.40;;
76788;SDS011;65740;52.464;13.446;2023-04-01T04:22:27;2.70;;;2.50;;
76788;SDS011;65740;52.464;13.446;2023-04-01T04:24:53;2.60;;;2.40;;
76788;SDS011;65740;52.464;13.446;2023-04-01T04:27:19;2.73;;;2.60;;
76788;SDS011;65740;52.464;13.446;2023-04-01T04:29:45;2.70;;;2.50;;
76788;SDS011;65740;52.464;13.446;2023-04-01T04:32:11;2.73;;;2.53;;
76788;SDS011;65740;52.464;13.446;2023-04-01T04:34:36;2.50;;;2.40;;
76788;SDS011;65740;52.464;13.446;2023-04-01T04:37:02;2.40;;;2.30;;
76788;SDS011;65740;52.464;13.446;2023-04-01T04:39:28;2.43;;;2.30;;
76788;SDS011;65740;52.464;13.446;2023-04-01T04:41:54;2.60;;;2.40;;
76788;SDS011;65740;52.464;13.446;2023-04-01T04:44:19;2.47;;;2.37;;
76788;SDS011;65740;52.464;13.446;2023-04-01T04:46:45;3.10;;;2.50;;
76788;SDS011;65740;52.464;13.446;2023-04-01T04:49:11;3.10;;;2.90;;
76788;SDS011;65740;52.464;13.446;2023-04-01T04:51:37;3.33;;;3.07;;
76788;SDS011;65740;52.464;13.446;2023-04-01T04:54:03;3.20;;;2.90;;
76788;SDS011;65740;52.464;13.446;2023-04-01T04:56:29;3.00;;;2.80;;
76788;SDS011;65740;52.464;13.446;2023-04-01T04:58:55;2.77;;;2.67;;
76788;SDS011;65740;52.464;13.446;2023-04-01T05:01:22;3.03;;;2.83;;
76788;SDS011;65740;52.464;13.446;2023-04-01T05:03:47;2.63;;;2.53;;
76788;SDS011;65740;52.464;13.446;2023-04-01T05:06:14;3.07;;;2.87;;
76788;SDS011;65740;52.464;13.446;2023-04-01T05:08:40;2.67;;;2.47;;
76788;SDS011;65740;52.464;13.446;2023-04-01T05:11:07;2.97;;;2.77;;
76788;SDS011;65740;52.464;13.446;2023-04-01T05:13:43;2.77;;;2.60;;
76788;SDS011;65740;52.464;13.446;2023-04-01T05:16:11;2.73;;;2.63;;
76788;SDS011;65740;52.464;13.446;2023-04-01T05:18:38;2.90;;;2.80;;
76788;SDS011;65740;52.464;13.446;2023-04-01T05:21:06;2.70;;;2.60;;
76788;SDS011;65740;52.464;13.446;2023-04-01T05:23:33;3.20;;;2.90;;
76788;SDS011;65740;52.464;13.446;2023-04-01T05:26:02;2.67;;;2.50;;
76788;SDS011;65740;52.464;13.446;2023-04-01T05:28:32;3.13;;;2.93;;
76788;SDS011;65740;52.464;13.446;2023-04-01T05:30:58;3.00;;;2.80;;
76788;SDS011;65740;52.464;13.446;2023-04-01T05:33:25;2.70;;;2.50;;
76788;SDS011;65740;52.464;13.446;2023-04-01T05:35:51;2.70;;;2.60;;
76788;SDS011;65740;52.464;13.446;2023-04-01T05:38:17;2.90;;;2.80;;
76788;SDS011;65740;52.464;13.446;2023-04-01T05:40:43;3.00;;;2.80;;
76788;SDS011;65740;52.464;13.446;2023-04-01T05:43:08;2.80;;;2.60;;
76788;SDS011;65740;52.464;13.446;2023-04-01T05:45:34;2.80;;;2.70;;
76788;SDS011;65740;52.464;13.446;2023-04-01T05:48:00;3.03;;;2.83;;
76788;SDS011;65740;52.464;13.446;2023-04-01T05:50:26;3.00;;;2.80;;
76788;SDS011;65740;52.464;13.446;2023-04-01T05:52:52;2.80;;;2.70;;
76788;SDS011;65740;52.464;13.446;2023-04-01T05:55:17;2.90;;;2.80;;
76788;SDS011;65740;52.464;13.446;2023-04-01T05:57:44;2.83;;;2.70;;
76788;SDS011;65740;52.464;13.446;2023-04-01T06:00:11;2.60;;;2.47;;
76788;SDS011;65740;52.464;13.446;2023-04-01T06:02:37;2.73;;;2.63;;
76788;SDS011;65740;52.464;13.446;2023-04-01T06:07:35;3.20;;;3.00;;
76788;SDS011;65740;52.464;13.446;2023-04-01T06:10:01;2.37;;;2.20;;
76788;SDS011;65740;52.464;13.446;2023-04-01T06:12:39;2.30;;;2.20;;
76788;SDS011;65740;52.464;13.446;2023-04-01T06:29:08;2.50;;;2.33;;
76788;SDS011;65740;52.464;13.446;2023-04-01T06:39:28;2.57;;;2.47;;
76788;SDS011;65740;52.464;13.446;2023-04-01T06:56:31;2.90;;;2.70;;
76788;SDS011;65740;52.464;13.446;2023-04-01T06:58:59;3.00;;;2.80;;
76788;SDS011;65740;52.464;13.446;2023-04-01T07:01:33;2.73;;;2.63;;
76788;SDS011;65740;52.464;13.446;2023-04-01T07:04:18;2.60;;;2.50;;
76788;SDS011;65740;52.464;13.446;2023-04-01T07:09:52;2.47;;;2.27;;
76788;SDS011;65740;52.464;13.446;2023-04-01T07:14:55;2.50;;;2.40;;
76788;SDS011;65740;52.464;13.446;2023-04-01T07:17:27;2.70;;;2.50;;
76788;SDS011;65740;52.464;13.446;2023-04-01T07:20:11;3.00;;;2.80;;
76788;SDS011;65740;52.464;13.446;2023-04-01T07:22:48;2.57;;;2.33;;
76788;SDS011;65740;52.464;13.446;2023-04-01T07:25:26;2.50;;;2.40;;
76788;SDS011;65740;52.464;13.446;2023-04-01T07:28:11;2.30;;;2.20;;
76788;SDS011;65740;52.464;13.446;2023-04-01T07:30:42;2.80;;;2.50;;
76788;SDS011;65740;52.464;13.446;2023-04-01T07:33:39;2.50;;;2.40;;
76788;SDS011;65740;52.464;13.446;2023-04-01T07:36:33;2.73;;;2.53;;
76788;SDS011;65740;52.464;13.446;2023-04-01T07:47:18;2.83;;;2.63;;
76788;SDS011;65740;52.464;13.446;2023-04-01T07:58:16;2.43;;;2.33;;
76788;SDS011;65740;52.464;13.446;2023-04-01T08:00:47;2.90;;;2.80;;
76788;SDS011;65740;52.464;13.446;2023-04-01T08:03:36;2.60;;;2.40;;
76788;SDS011;65740;52.464;13.446;2023-04-01T08:06:17;2.90;;;2.70;;
76788;SDS011;65740;52.464;13.446;2023-04-01T08:12:12;2.60;;;2.50;;
76788;SDS011;65740;52.464;13.446;2023-04-01T08:14:52;2.57;;;2.37;;
76788;SDS011;65740;52.464;13.446;2023-04-01T08:17:40;2.70;;;2.60;;
76788;SDS011;65740;52.464;13.446;2023-04-01T08:23:14;2.83;;;2.63;;
76788;SDS011;65740;52.464;13.446;2023-04-01T08:32:13;2.67;;;2.57;;
76788;SDS011;65740;52.464;13.446;2023-04-01T08:34:44;2.53;;;2.40;;
76788;SDS011;65740;52.464;13.446;2023-04-01T08:37:23;3.23;;;3.03;;
76788;SDS011;65740;52.464;13.446;2023-04-01T08:39:54;2.60;;;2.50;;
76788;SDS011;65740;52.464;13.446;2023-04-01T08:50:55;2.90;;;2.70;;
76788;SDS011;65740;52.464;13.446;2023-04-01T08:53:48;2.77;;;2.67;;
76788;SDS011;65740;52.464;13.446;2023-04-01T08:56:32;2.30;;;2.20;;
76788;SDS011;65740;52.464;13.446;2023-04-01T09:07:40;2.50;;;2.40;;
76788;SDS011;65740;52.464;13.446;2023-04-01T09:19:41;2.70;;;2.50;;
76788;SDS011;65740;52.464;13.446;2023-04-01T09:31:04;2.60;;;2.50;;
76788;SDS011;65740;52.464;13.446;2023-04-01T09:43:23;2.80;;;2.70;;
76788;SDS011;65740;52.464;13.446;2023-04-01T10:00:59;2.70;;;2.60;;
76788;SDS011;65740;52.464;13.446;2023-04-01T10:06:28;2.77;;;2.57;;
76788;SDS011;65740;52.464;13.446;2023-04-01T10:12:03;2.67;;;2.50;;
76788;SDS011;65740;52.464;13.446;2023-04-01T10:37:39;2.50;;;2.40;;
76788;SDS011;65740;52.464;13.446;2023-04-01T10:40:17;2.57;;;2.47;;
76788;SDS011;65740;52.464;13.446;2023-04-01T10:55:08;2.80;;;2.70;;
76788;SDS011;65740;52.464;13.446;2023-04-01T11:00:48;2.63;;;2.53;;
76788;SDS011;65740;52.464;13.446;2023-04-01T11:20:31;3.20;;;3.10;;
76788;SDS011;65740;52.464;13.446;2023-04-01T11:23:06;2.90;;;2.80;;
76788;SDS011;65740;52.464;13.446;2023-04-01T11:31:18;3.33;;;3.13;;
76788;SDS011;65740;52.464;13.446;2023-04-01T11:39:00;2.70;;;2.60;;
76788;SDS011;65740;52.464;13.446;2023-04-01T11:42:07;3.00;;;2.90;;
76788;SDS011;65740;52.464;13.446;2023-04-01T11:44:39;3.30;;;3.10;;
76788;SDS011;65740;52.464;13.446;2023-04-01T11:49:56;3.50;;;3.30;;
76788;SDS011;65740;52.464;13.446;2023-04-01T12:06:02;2.97;;;2.87;;
76788;SDS011;65740;52.464;13.446;2023-04-01T12:09:09;3.13;;;3.03;;
76788;SDS011;65740;52.464;13.446;2023-04-01T12:20:42;2.90;;;2.80;;
76788;SDS011;65740;52.464;13.446;2023-04-01T12:26:10;3.30;;;3.10;;
76788;SDS011;65740;52.464;13.446;2023-04-01T12:31:51;3.10;;;3.00;;
76788;SDS011;65740;52.464;13.446;2023-04-01T12:37:33;3.27;;;3.10;;
76788;SDS011;65740;52.464;13.446;2023-04-01T12:40:02;3.40;;;3.20;;
76788;SDS011;65740;52.464;13.446;2023-04-01T12:56:39;2.87;;;2.77;;
76788;SDS011;65740;52.464;13.446;2023-04-01T12:59:19;3.53;;;3.30;;
76788;SDS011;65740;52.464;13.446;2023-04-01T13:09:57;2.90;;;2.80;;
76788;SDS011;65740;52.464;13.446;2023-04-01T13:15:31;3.10;;;2.93;;
76788;SDS011;65740;52.464;13.446;2023-04-01T13:20:48;3.03;;;2.90;;
76788;SDS011;65740;52.464;13.446;2023-04-01T13:23:33;3.57;;;3.37;;
76788;SDS011;65740;52.464;13.446;2023-04-01T13:28:36;3.07;;;2.97;;
76788;SDS011;65740;52.464;13.446;2023-04-01T13:33:50;3.27;;;3.13;;
76788;SDS011;65740;52.464;13.446;2023-04-01T13:36:54;2.90;;;2.80;;
76788;SDS011;65740;52.464;13.446;2023-04-01T13:45:00;3.00;;;2.90;;
76788;SDS011;65740;52.464;13.446;2023-04-01T13:47:50;3.10;;;3.00;;
76788;SDS011;65740;52.464;13.446;2023-04-01T13:58:52;3.00;;;2.90;;
76788;SDS011;65740;52.464;13.446;2023-04-01T14:02:02;3.17;;;3.07;;
76788;SDS011;65740;52.464;13.446;2023-04-01T14:04:49;2.80;;;2.70;;
76788;SDS011;65740;52.464;13.446;2023-04-01T14:16:46;3.13;;;2.93;;
76788;SDS011;65740;52.464;13.446;2023-04-01T14:22:28;3.13;;;3.00;;
76788;SDS011;65740;52.464;13.446;2023-04-01T14:27:41;3.33;;;3.17;;
76788;SDS011;65740;52.464;13.446;2023-04-01T14:30:27;2.97;;;2.87;;
76788;SDS011;65740;52.464;13.446;2023-04-01T14:33:10;3.40;;;3.20;;
76788;SDS011;65740;52.464;13.446;2023-04-01T14:52:11;3.53;;;3.33;;
76788;SDS011;65740;52.464;13.446;2023-04-01T14:54:44;3.00;;;2.83;;
76788;SDS011;65740;52.464;13.446;2023-04-01T14:59:53;3.80;;;3.60;;
76788;SDS011;65740;52.464;13.446;2023-04-01T15:08:09;3.30;;;3.20;;
76788;SDS011;65740;52.464;13.446;2023-04-01T15:29:36;3.63;;;3.33;;
76788;SDS011;65740;52.464;13.446;2023-04-01T15:37:35;3.30;;;3.10;;
76788;SDS011;65740;52.464;13.446;2023-04-01T15:43:13;4.33;;;3.97;;
76788;SDS011;65740;52.464;13.446;2023-04-01T15:51:48;4.00;;;3.70;;
76788;SDS011;65740;52.464;13.446;2023-04-01T15:54:32;3.80;;;3.60;;
76788;SDS011;65740;52.464;13.446;2023-04-01T15:57:32;4.80;;;3.43;;
76788;SDS011;65740;52.464;13.446;2023-04-01T16:25:40;4.23;;;3.97;;
76788;SDS011;65740;52.464;13.446;2023-04-01T16:28:32;4.30;;;4.10;;
76788;SDS011;65740;52.464;13.446;2023-04-01T16:31:15;4.10;;;3.80;;
76788;SDS011;65740;52.464;13.446;2023-04-01T16:41:49;4.00;;;3.70;;
76788;SDS011;65740;52.464;13.446;2023-04-01T16:47:22;3.70;;;3.50;;
76788;SDS011;65740;52.464;13.446;2023-04-01T16:50:06;3.90;;;3.63;;
76788;SDS011;65740;52.464;13.446;2023-04-01T16:55:49;4.20;;;3.90;;
76788;SDS011;65740;52.464;13.446;2023-04-01T16:58:14;3.97;;;3.77;;
76788;SDS011;65740;52.464;13.446;2023-04-01T17:00:49;3.80;;;3.60;;
76788;SDS011;65740;52.464;13.446;2023-04-01T17:03:28;3.47;;;3.27;;
76788;SDS011;65740;52.464;13.446;2023-04-01T17:06:02;4.03;;;3.83;;
76788;SDS011;65740;52.464;13.446;2023-04-01T17:08:44;4.17;;;3.90;;
76788;SDS011;65740;52.464;13.446;2023-04-01T17:11:37;3.80;;;3.60;;
76788;SDS011;65740;52.464;13.446;2023-04-01T17:14:09;3.67;;;3.47;;
76788;SDS011;65740;52.464;13.446;2023-04-01T17:27:44;3.73;;;3.53;;
76788;SDS011;65740;52.464;13.446;2023-04-01T17:30:27;3.70;;;3.50;;
76788;SDS011;65740;52.464;13.446;2023-04-01T17:33:18;3.90;;;3.70;;
76788;SDS011;65740;52.464;13.446;2023-04-01T17:52:51;3.50;;;3.30;;
76788;SDS011;65740;52.464;13.446;2023-04-01T18:00:36;3.70;;;3.50;;
76788;SDS011;65740;52.464;13.446;2023-04-01T18:03:24;4.03;;;3.83;;
76788;SDS011;65740;52.464;13.446;2023-04-01T18:06:14;3.97;;;3.77;;
76788;SDS011;65740;52.464;13.446;2023-04-01T18:22:58;3.60;;;3.40;;
76788;SDS011;65740;52.464;13.446;2023-04-01T18:25:30;3.30;;;3.10;;
76788;SDS011;65740;52.464;13.446;2023-04-01T18:36:13;4.03;;;3.73;;
76788;SDS011;65740;52.464;13.446;2023-04-01T18:39:07;3.43;;;3.23;;
76788;SDS011;65740;52.464;13.446;2023-04-01T18:41:42;3.40;;;3.20;;
76788;SDS011;65740;52.464;13.446;2023-04-01T18:44:31;3.80;;;3.60;;
76788;SDS011;65740;52.464;13.446;2023-04-01T18:50:23;3.63;;;3.43;;
76788;SDS011;65740;52.464;13.446;2023-04-01T18:52:56;4.03;;;3.83;;
76788;SDS011;65740;52.464;13.446;2023-04-01T18:55:46;3.90;;;3.70;;
76788;SDS011;65740;52.464;13.446;2023-04-01T19:01:10;3.80;;;3.60;;
76788;SDS011;65740;52.464;13.446;2023-04-01T19:03:58;3.70;;;3.50;;
76788;SDS011;65740;52.464;13.446;2023-04-01T19:06:35;3.50;;;3.30;;
76788;SDS011;65740;52.464;13.446;2023-04-01T19:09:17;3.57;;;3.37;;
76788;SDS011;65740;52.464;13.446;2023-04-01T19:11:50;3.90;;;3.70;;
76788;SDS011;65740;52.464;13.446;2023-04-01T19:14:38;3.43;;;3.23;;
76788;SDS011;65740;52.464;13.446;2023-04-01T19:20:26;3.23;;;3.03;;
76788;SDS011;65740;52.464;13.446;2023-04-01T19:28:02;3.47;;;3.27;;
76788;SDS011;65740;52.464;13.446;2023-04-01T19:30:42;3.67;;;3.47;;
76788;SDS011;65740;52.464;13.446;2023-04-01T19:36:49;3.50;;;3.30;;
76788;SDS011;65740;52.464;13.446;2023-04-01T19:44:51;3.60;;;3.40;;
76788;SDS011;65740;52.464;13.446;2023-04-01T19:50:48;3.70;;;3.50;;
76788;SDS011;65740;52.464;13.446;2023-04-01T20:01:03;3.80;;;3.50;;
76788;SDS011;65740;52.464;13.446;2023-04-01T20:17:29;3.50;;;3.30;;
76788;SDS011;65740;52.464;13.446;2023-04-01T20:20:03;3.53;;;3.27;;
76788;SDS011;65740;52.464;13.446;2023-04-01T20:25:31;3.23;;;3.03;;
76788;SDS011;65740;52.464;13.446;2023-04-01T20:33:21;3.87;;;3.43;;
76788;SDS011;65740;52.464;13.446;2023-04-01T20:44:19;3.20;;;3.10;;
76788;SDS011;65740;52.464;13.446;2023-04-01T20:50:27;3.70;;;3.50;;
76788;SDS011;65740;52.464;13.446;2023-04-01T21:01:01;2.97;;;2.87;;
76788;SDS011;65740;52.464;13.446;2023-04-01T21:12:14;3.40;;;3.20;;
76788;SDS011;65740;52.464;13.446;2023-04-01T21:20:16;3.33;;;3.13;;
76788;SDS011;65740;52.464;13.446;2023-04-01T21:50:53;3.13;;;2.93;;
76788;SDS011;65740;52.464;13.446;2023-04-01T21:54:04;3.77;;;3.57;;
76788;SDS011;65740;52.464;13.446;2023-04-01T21:59:40;3.10;;;2.97;;
76788;SDS011;65740;52.464;13.446;2023-04-01T22:11:43;3.30;;;3.10;;
76788;SDS011;65740;52.464;13.446;2023-04-01T22:16:59;3.23;;;3.03;;
76788;SDS011;65740;52.464;13.446;2023-04-01T22:22:10;3.30;;;3.10;;
76788;SDS011;65740;52.464;13.446;2023-04-01T22:30:00;3.30;;;3.10;;
76788;SDS011;65740;52.464;13.446;2023-04-01T22:32:29;3.87;;;3.57;;
76788;SDS011;65740;52.464;13.446;2023-04-01T22:40:34;3.93;;;3.63;;
76788;SDS011;65740;52.464;13.446;2023-04-01T22:43:08;3.03;;;2.83;;
76788;SDS011;65740;52.464;13.446;2023-04-01T22:50:46;3.17;;;2.97;;
76788;SDS011;65740;52.464;13.446;2023-04-01T22:56:07;3.50;;;3.20;;
76788;SDS011;65740;52.464;13.446;2023-04-01T22:59:04;3.37;;;3.17;;
76788;SDS011;65740;52.464;13.446;2023-04-01T23:01:36;3.33;;;3.13;;
76788;SDS011;65740;52.464;13.446;2023-04-01T23:04:08;3.03;;;2.83;;
76788;SDS011;65740;52.464;13.446;2023-04-01T23:06:38;3.47;;;3.27;;
76788;SDS011;65740;52.464;13.446;2023-04-01T23:09:28;3.37;;;3.17;;
76788;SDS011;65740;52.464;13.446;2023-04-01T23:14:29;3.33;;;3.13;;
76788;SDS011;65740;52.464;13.446;2023-04-01T23:33:50;3.33;;;3.03;;
76788;SDS011;65740;52.464;13.446;2023-04-01T23:36:00;3.37;;;3.17;;
76788;SDS011;65740;52.464;13.446;2023-04-01T23:38:39;3.07;;;2.87;;
76788;SDS011;65740;52.464;13.446;2023-04-01T23:41:07;3.00;;;2.90;;
76788;SDS011;65740;52.464;13.446;2023-04-01T23:43:41;3.50;;;3.30;;
76788;SDS011;65740;52.464;13.446;2023-04-01T23:46:08;3.20;;;3.00;;
76788;SDS011;65740;52.464;13.446;2023-04-01T23:48:39;3.60;;;3.40;;
76788;SDS011;65740;52.464;13.446;2023-04-01T23:51:29;3.33;;;3.13;;
76788;SDS011;65740;52.464;13.446;2023-04-01T23:54:02;3.20;;;3.00;;
76788;SDS011;65740;52.464;13.446;2023-04-01T23:56:39;3.40;;;3.13;;
76788;SDS011;65740;52.464;13.446;2023-04-01T23:59:11;3.37;;;3.17;;
